createdAt,value
2023-01-11T00:01:04.462Z,28.38
2023-01-11T00:02:37.572Z,26.27
2023-01-11T00:04:12.068Z,25.73
2023-01-11T00:05:45.667Z,25.60
2023-01-11T00:07:17.796Z,26.20
2023-01-11T00:08:50.859Z,20.25
2023-01-11T00:10:24.258Z,24.58
2023-01-11T00:11:56.356Z,23.33
2023-01-11T00:13:29.543Z,24.55
2023-01-11T00:15:01.639Z,21.42
2023-01-11T00:16:34.772Z,26.95
2023-01-11T00:18:06.873Z,23.48
2023-01-11T00:19:41.345Z,20.90
2023-01-11T00:21:14.957Z,21.67
2023-01-11T00:22:48.136Z,19.73
2023-01-11T00:24:20.236Z,24.88
2023-01-11T00:25:53.306Z,19.95
2023-01-11T00:27:26.374Z,19.70
2023-01-11T00:28:59.513Z,19.43
2023-01-11T00:30:32.997Z,18.45
2023-01-11T00:32:06.546Z,21.17
2023-01-11T00:33:39.621Z,18.07
2023-01-11T00:35:14.278Z,20.20
2023-01-11T00:36:47.443Z,20.73
2023-01-11T00:38:34.463Z,18.17
2023-01-11T00:40:09.014Z,16.50
2023-01-11T00:41:59.530Z,15.55
2023-01-11T00:44:01.346Z,13.60
2023-01-11T00:45:52.490Z,16.40
2023-01-11T00:47:42.989Z,15.82
2023-01-11T00:49:16.055Z,15.57
2023-01-11T00:50:53.333Z,16.05
2023-01-11T00:52:25.739Z,13.70
2023-01-11T00:53:58.826Z,12.55
2023-01-11T00:55:32.840Z,14.65
2023-01-11T00:57:07.255Z,16.13
2023-01-11T00:58:40.327Z,13.32
2023-01-11T01:00:14.497Z,12.80
2023-01-11T01:01:47.613Z,13.73
2023-01-11T01:03:20.657Z,11.43
2023-01-11T01:04:52.918Z,12.90
2023-01-11T01:06:27.599Z,11.97
2023-01-11T01:08:00.687Z,10.80
2023-01-11T01:09:33.106Z,15.27
2023-01-11T01:11:06.179Z,13.60
2023-01-11T01:12:57.414Z,14.67
2023-01-11T01:14:30.119Z,12.13
2023-01-11T01:16:03.232Z,13.17
2023-01-11T01:17:36.659Z,12.77
2023-01-11T01:19:10.273Z,9.37
2023-01-11T01:20:43.375Z,10.30
2023-01-11T01:22:17.809Z,11.17
2023-01-11T01:23:52.691Z,10.73
2023-01-11T01:25:25.790Z,13.73
2023-01-11T01:26:59.507Z,12.10
2023-01-11T01:28:32.856Z,14.47
2023-01-11T01:30:07.588Z,13.60
2023-01-11T01:31:40.873Z,12.33
2023-01-11T01:33:14.407Z,12.73
2023-01-11T01:34:47.571Z,12.37
2023-01-11T01:36:19.786Z,11.77
2023-01-11T01:37:54.197Z,8.57
2023-01-11T01:39:26.347Z,12.30
2023-01-11T01:40:59.444Z,12.00
2023-01-11T01:42:32.632Z,12.80
2023-01-11T01:44:26.504Z,11.73
2023-01-11T01:45:59.706Z,12.70
2023-01-11T01:47:38.179Z,13.77
2023-01-11T01:49:16.659Z,14.80
2023-01-11T01:50:54.902Z,14.00
2023-01-11T01:52:29.308Z,12.50
2023-01-11T01:54:07.774Z,13.20
2023-01-11T01:55:44.483Z,14.93
2023-01-11T01:57:22.100Z,13.17
2023-01-11T01:58:58.344Z,14.87
2023-01-11T02:00:31.601Z,16.47
2023-01-11T02:02:03.817Z,13.93
2023-01-11T02:03:36.903Z,13.23
2023-01-11T02:05:10.971Z,12.63
2023-01-11T02:06:43.491Z,14.57
2023-01-11T02:08:23.612Z,13.60
2023-01-11T02:10:03.684Z,14.07
2023-01-11T02:11:43.193Z,12.77
2023-01-11T02:13:16.426Z,10.87
2023-01-11T02:14:49.555Z,19.83
2023-01-11T02:16:22.711Z,12.97
2023-01-11T02:17:55.858Z,14.27
2023-01-11T02:19:46.665Z,12.03
2023-01-11T02:21:26.575Z,12.47
2023-01-11T02:23:18.860Z,12.60
2023-01-11T02:25:15.473Z,14.37
2023-01-11T02:27:27.290Z,15.37
2023-01-11T02:29:05.929Z,11.90
2023-01-11T02:30:50.101Z,13.27
2023-01-11T02:32:30.025Z,13.80
2023-01-11T02:34:22.445Z,15.63
2023-01-11T02:36:06.279Z,13.30
2023-01-11T02:37:48.774Z,13.60
2023-01-11T02:39:31.293Z,12.87
2023-01-11T02:41:09.946Z,11.13
2023-01-11T02:43:08.980Z,12.73
2023-01-11T02:45:03.512Z,10.70
2023-01-11T02:46:44.293Z,14.00
2023-01-11T02:48:25.095Z,11.17
2023-01-11T02:50:08.817Z,9.53
2023-01-11T02:51:45.531Z,12.07
2023-01-11T02:53:23.529Z,12.40
2023-01-11T02:55:00.109Z,14.47
2023-01-11T02:56:37.267Z,11.13
2023-01-11T02:58:13.304Z,11.00
2023-01-11T02:59:49.959Z,13.23
2023-01-11T03:01:23.516Z,10.23
2023-01-11T03:03:15.909Z,15.50
2023-01-11T03:04:49.000Z,11.80
2023-01-11T03:06:24.002Z,12.03
2023-01-11T03:08:02.449Z,14.03
2023-01-11T03:09:44.016Z,10.50
2023-01-11T03:11:46.003Z,9.73
2023-01-11T03:13:29.587Z,12.33
2023-01-11T03:15:15.355Z,11.13
2023-01-11T03:16:56.603Z,11.80
2023-01-11T03:18:41.183Z,12.23
2023-01-11T03:20:21.870Z,13.23
2023-01-11T03:22:04.831Z,11.10
2023-01-11T03:23:43.522Z,9.23
2023-01-11T03:25:22.158Z,10.63
2023-01-11T03:27:07.258Z,10.07
2023-01-11T03:28:47.857Z,7.90
2023-01-11T03:30:28.062Z,11.30
2023-01-11T03:32:12.169Z,11.17
2023-01-11T03:33:53.247Z,10.07
2023-01-11T03:35:31.753Z,7.40
2023-01-11T03:37:09.597Z,9.00
2023-01-11T03:38:47.187Z,9.50
2023-01-11T03:40:25.188Z,7.83
2023-01-11T03:42:01.832Z,9.97
2023-01-11T03:43:37.771Z,9.13
2023-01-11T03:45:10.711Z,10.23
2023-01-11T03:46:49.686Z,9.10
2023-01-11T03:48:28.518Z,7.50
2023-01-11T03:50:05.837Z,10.33
2023-01-11T03:51:44.705Z,8.00
2023-01-11T03:53:19.642Z,9.33
2023-01-11T03:54:53.976Z,11.47
2023-01-11T03:56:33.558Z,6.27
2023-01-11T03:58:08.903Z,7.57
2023-01-11T03:59:42.410Z,6.93
2023-01-11T04:01:16.002Z,9.87
2023-01-11T04:02:49.862Z,5.70
2023-01-11T04:04:23.512Z,6.07
2023-01-11T04:05:59.618Z,8.77
2023-01-11T04:07:32.704Z,6.17
2023-01-11T04:09:06.378Z,8.93
2023-01-11T04:10:39.479Z,7.30
2023-01-11T04:12:13.094Z,9.37
2023-01-11T04:13:46.131Z,9.73
2023-01-11T04:15:18.228Z,6.50
2023-01-11T04:16:51.257Z,7.73
2023-01-11T04:18:24.697Z,7.13
2023-01-11T04:19:57.797Z,6.97
2023-01-11T04:21:30.042Z,7.93
2023-01-11T04:23:03.177Z,8.57
2023-01-11T04:24:36.279Z,6.60
2023-01-11T04:26:09.331Z,8.03
2023-01-11T04:27:41.406Z,7.87
2023-01-11T04:29:14.729Z,7.97
2023-01-11T04:30:47.806Z,8.93
2023-01-11T04:32:19.964Z,7.50
2023-01-11T04:33:54.381Z,8.77
2023-01-11T04:35:27.634Z,6.73
2023-01-11T04:37:00.660Z,7.33
2023-01-11T04:38:34.551Z,7.80
2023-01-11T04:40:08.854Z,7.97
2023-01-11T04:42:07.515Z,10.17
2023-01-11T04:43:40.683Z,8.03
2023-01-11T04:45:13.775Z,7.10
2023-01-11T04:46:45.919Z,6.70
2023-01-11T04:48:18.953Z,7.97
2023-01-11T04:49:53.662Z,8.53
2023-01-11T04:51:25.733Z,8.53
2023-01-11T04:52:59.964Z,7.53
2023-01-11T04:54:33.017Z,7.43
2023-01-11T04:56:07.315Z,10.27
2023-01-11T04:57:40.349Z,8.03
2023-01-11T04:59:12.427Z,7.53
2023-01-11T05:00:45.543Z,9.57
2023-01-11T05:02:18.928Z,9.23
2023-01-11T05:03:52.249Z,8.20
2023-01-11T05:05:26.709Z,8.83
2023-01-11T05:06:59.883Z,10.17
2023-01-11T05:08:33.629Z,15.93
2023-01-11T05:10:07.685Z,9.90
2023-01-11T05:11:40.883Z,8.60
2023-01-11T05:13:13.966Z,8.87
2023-01-11T05:14:47.035Z,8.93
2023-01-11T05:16:20.757Z,8.20
2023-01-11T05:17:53.832Z,9.03
2023-01-11T05:19:27.015Z,6.93
2023-01-11T05:21:00.468Z,7.67
2023-01-11T05:22:33.535Z,6.60
2023-01-11T05:24:07.861Z,9.10
2023-01-11T05:25:40.899Z,6.03
2023-01-11T05:27:13.955Z,7.93
2023-01-11T05:28:46.816Z,8.07
2023-01-11T05:30:20.162Z,10.37
2023-01-11T05:31:53.299Z,12.40
2023-01-11T05:33:25.447Z,7.23
2023-01-11T05:34:58.463Z,8.63
2023-01-11T05:36:32.889Z,9.50
2023-01-11T05:38:04.942Z,9.10
2023-01-11T05:39:37.993Z,7.87
2023-01-11T05:41:11.769Z,12.03
2023-01-11T05:42:47.415Z,10.43
2023-01-11T05:44:38.143Z,10.73
2023-01-11T05:46:10.304Z,8.47
2023-01-11T05:47:43.405Z,7.67
2023-01-11T05:49:16.905Z,6.40
2023-01-11T05:50:53.155Z,11.13
2023-01-11T05:52:27.595Z,9.43
2023-01-11T05:54:01.808Z,8.20
2023-01-11T05:55:35.158Z,7.87
2023-01-11T05:57:11.522Z,8.13
2023-01-11T05:58:44.569Z,9.10
2023-01-11T06:00:18.320Z,8.27
2023-01-11T06:01:51.546Z,9.50
2023-01-11T06:03:25.993Z,7.67
2023-01-11T06:04:59.032Z,10.27
2023-01-11T06:06:32.173Z,5.80
2023-01-11T06:08:06.864Z,11.37
2023-01-11T06:09:39.986Z,8.70
2023-01-11T06:11:12.337Z,8.37
2023-01-11T06:12:45.338Z,11.00
2023-01-11T06:14:18.401Z,7.50
2023-01-11T06:15:51.571Z,9.40
2023-01-11T06:17:24.611Z,6.50
2023-01-11T06:18:57.693Z,7.17
2023-01-11T06:20:30.850Z,5.93
2023-01-11T06:22:03.979Z,6.00
2023-01-11T06:23:40.849Z,9.33
2023-01-11T06:25:13.919Z,8.37
2023-01-11T06:26:46.952Z,4.90
2023-01-11T06:28:20.001Z,6.93
2023-01-11T06:29:53.026Z,10.63
2023-01-11T06:31:26.121Z,8.80
2023-01-11T06:33:05.723Z,6.93
2023-01-11T06:34:38.776Z,5.97
2023-01-11T06:36:13.673Z,6.73
2023-01-11T06:37:46.732Z,6.70
2023-01-11T06:39:21.313Z,7.77
2023-01-11T06:40:55.993Z,4.87
2023-01-11T06:42:29.038Z,5.57
2023-01-11T06:44:02.131Z,5.57
2023-01-11T06:45:38.170Z,4.57
2023-01-11T06:47:11.301Z,5.43
2023-01-11T06:48:44.626Z,6.53
2023-01-11T06:50:18.291Z,5.43
2023-01-11T06:51:51.386Z,5.67
2023-01-11T06:53:25.350Z,5.13
2023-01-11T06:55:01.228Z,4.27
2023-01-11T06:56:34.291Z,4.33
2023-01-11T06:58:07.365Z,4.23
2023-01-11T06:59:41.820Z,4.90
2023-01-11T07:01:15.282Z,7.90
2023-01-11T07:02:49.493Z,6.23
2023-01-11T07:04:22.551Z,8.20
2023-01-11T07:05:57.521Z,4.93
2023-01-11T07:07:30.579Z,5.33
2023-01-11T07:09:03.725Z,6.50
2023-01-11T07:10:38.434Z,5.40
2023-01-11T07:12:11.521Z,6.00
2023-01-11T07:13:44.587Z,8.27
2023-01-11T07:15:17.775Z,7.23
2023-01-11T07:16:50.885Z,7.13
2023-01-11T07:18:23.944Z,8.57
2023-01-11T07:19:56.998Z,8.23
2023-01-11T07:21:30.031Z,5.73
2023-01-11T07:23:03.073Z,5.47
2023-01-11T07:24:36.233Z,7.97
2023-01-11T07:26:10.716Z,5.10
2023-01-11T07:27:43.950Z,8.30
2023-01-11T07:29:17.076Z,7.77
2023-01-11T07:30:58.507Z,5.53
2023-01-11T07:32:32.167Z,10.30
2023-01-11T07:34:05.274Z,7.40
2023-01-11T07:35:38.593Z,8.93
2023-01-11T07:37:28.621Z,7.50
2023-01-11T07:39:02.501Z,8.73
2023-01-11T07:40:36.593Z,4.80
2023-01-11T07:42:29.909Z,6.37
2023-01-11T07:44:01.989Z,6.70
2023-01-11T07:45:45.317Z,5.80
2023-01-11T07:47:19.095Z,5.60
2023-01-11T07:48:52.169Z,6.13
2023-01-11T07:50:25.230Z,7.33
2023-01-11T07:51:58.430Z,7.07
2023-01-11T07:53:31.505Z,7.37
2023-01-11T07:55:04.876Z,6.67
2023-01-11T07:56:37.974Z,8.17
2023-01-11T07:58:14.443Z,6.70
2023-01-11T07:59:47.630Z,7.00
2023-01-11T08:01:20.699Z,5.83
2023-01-11T08:02:54.410Z,7.83
2023-01-11T08:04:28.114Z,4.67
2023-01-11T08:06:01.208Z,5.43
2023-01-11T08:07:34.362Z,5.20
2023-01-11T08:09:07.995Z,4.13
2023-01-11T08:10:42.158Z,5.47
2023-01-11T08:12:33.293Z,5.63
2023-01-11T08:14:25.234Z,5.57
2023-01-11T08:15:58.996Z,7.63
2023-01-11T08:17:33.951Z,5.27
2023-01-11T08:19:07.293Z,6.47
2023-01-11T08:20:41.093Z,4.60
2023-01-11T08:22:14.184Z,7.90
2023-01-11T08:23:47.254Z,14.50
2023-01-11T08:25:20.433Z,9.80
2023-01-11T08:26:53.544Z,9.80
2023-01-11T08:28:26.714Z,5.63
2023-01-11T08:30:26.051Z,5.03
2023-01-11T08:31:59.410Z,6.93
2023-01-11T08:33:32.528Z,7.23
2023-01-11T08:35:06.251Z,8.23
2023-01-11T08:36:39.579Z,5.17
2023-01-11T08:38:12.753Z,6.10
2023-01-11T08:39:45.861Z,5.30
2023-01-11T08:41:18.969Z,5.83
2023-01-11T08:42:56.293Z,4.37
2023-01-11T08:44:34.071Z,8.50
2023-01-11T08:46:09.148Z,7.00
2023-01-11T08:47:42.292Z,5.83
2023-01-11T08:49:15.372Z,5.50
2023-01-11T08:50:48.466Z,7.27
2023-01-11T08:52:22.497Z,4.97
2023-01-11T08:53:55.640Z,5.53
2023-01-11T08:55:30.719Z,5.53
2023-01-11T08:57:03.955Z,7.27
2023-01-11T08:58:37.462Z,5.23
2023-01-11T09:00:12.030Z,8.10
2023-01-11T09:01:47.184Z,7.60
2023-01-11T09:03:20.809Z,6.00
2023-01-11T09:04:53.872Z,4.43
2023-01-11T09:06:27.045Z,5.23
2023-01-11T09:08:00.110Z,4.33
2023-01-11T09:09:33.217Z,4.50
2023-01-11T09:11:26.591Z,5.37
2023-01-11T09:12:59.720Z,4.33
2023-01-11T09:14:32.918Z,5.23
2023-01-11T09:16:06.477Z,4.93
2023-01-11T09:17:40.949Z,3.93
2023-01-11T09:19:14.247Z,3.77
2023-01-11T09:20:47.481Z,4.10
2023-01-11T09:22:20.559Z,4.27
2023-01-11T09:23:53.659Z,5.27
2023-01-11T09:25:26.853Z,4.83
2023-01-11T09:27:00.367Z,7.40
2023-01-11T09:28:33.899Z,6.20
2023-01-11T09:30:08.045Z,8.63
2023-01-11T09:31:41.858Z,11.13
2023-01-11T09:33:16.430Z,7.13
2023-01-11T09:34:49.638Z,5.83
2023-01-11T09:36:26.608Z,10.60
2023-01-11T09:37:59.988Z,4.77
2023-01-11T09:39:34.887Z,6.47
2023-01-11T09:41:23.181Z,6.97
2023-01-11T09:43:00.849Z,5.57
2023-01-11T09:44:36.176Z,5.60
2023-01-11T09:46:12.399Z,7.20
2023-01-11T09:47:51.123Z,7.27
2023-01-11T09:49:29.225Z,5.30
2023-01-11T09:51:02.695Z,5.63
2023-01-11T09:52:41.102Z,6.10
2023-01-11T09:54:20.111Z,6.00
2023-01-11T09:55:54.673Z,6.83
2023-01-11T09:57:40.998Z,5.63
2023-01-11T09:59:24.245Z,7.07
2023-01-11T10:01:04.478Z,6.50
2023-01-11T10:02:49.147Z,6.60
2023-01-11T10:04:52.371Z,6.57
2023-01-11T10:06:29.761Z,7.57
2023-01-11T10:18:23.131Z,10.10
2023-01-11T10:18:26.162Z,7.20
2023-01-11T10:19:18.325Z,6.60
2023-01-11T10:20:48.380Z,6.53
2023-01-11T10:22:24.750Z,6.77
2023-01-11T10:24:03.230Z,5.90
2023-01-11T10:25:44.527Z,6.63
2023-01-11T10:27:22.729Z,5.13
2023-01-11T10:29:17.559Z,4.27
2023-01-11T10:31:08.073Z,4.50
2023-01-11T10:32:54.138Z,3.80
2023-01-11T10:34:42.865Z,7.47
2023-01-11T10:36:39.569Z,4.00
2023-01-11T10:38:40.877Z,4.30
2023-01-11T10:40:35.162Z,4.77
2023-01-11T10:42:12.871Z,3.30
2023-01-11T10:43:50.086Z,3.77
2023-01-11T10:45:32.739Z,4.17
2023-01-11T10:47:14.533Z,4.33
2023-01-11T10:48:48.334Z,4.30
2023-01-11T10:50:27.868Z,4.73
2023-01-11T10:52:13.588Z,5.17
2023-01-11T10:53:59.785Z,3.80
2023-01-11T10:55:43.711Z,4.30
2023-01-11T10:57:24.035Z,4.60
2023-01-11T10:59:18.105Z,3.73
2023-01-11T11:01:01.007Z,4.53
2023-01-11T11:02:57.240Z,4.07
2023-01-11T11:04:45.959Z,3.70
2023-01-11T11:06:29.882Z,8.10
2023-01-11T11:08:10.124Z,3.90
2023-01-11T11:09:52.114Z,4.73
2023-01-11T11:11:32.463Z,4.17
2023-01-11T11:13:27.380Z,4.97
2023-01-11T11:15:09.522Z,4.73
2023-01-11T11:17:02.468Z,3.60
2023-01-11T11:18:36.089Z,3.67
2023-01-11T11:20:15.775Z,4.30
2023-01-11T11:21:52.283Z,3.37
2023-01-11T11:23:28.728Z,4.33
2023-01-11T11:25:06.009Z,4.30
2023-01-11T11:26:43.699Z,3.73
2023-01-11T11:28:27.018Z,4.63
2023-01-11T11:30:00.155Z,3.50
2023-01-11T11:31:36.062Z,5.60
2023-01-11T11:33:18.112Z,4.00
2023-01-11T11:34:51.838Z,6.23
2023-01-11T11:36:26.289Z,6.57
2023-01-11T11:37:59.621Z,4.17
2023-01-11T11:39:34.585Z,5.23
2023-01-11T11:41:09.954Z,4.63
2023-01-11T11:42:43.094Z,4.33
2023-01-11T11:44:21.969Z,4.60
2023-01-11T11:45:57.454Z,4.90
2023-01-11T11:47:30.617Z,4.53
2023-01-11T11:49:16.747Z,7.07
2023-01-11T11:50:50.708Z,5.90
2023-01-11T11:52:24.049Z,4.90
2023-01-11T11:53:57.851Z,5.70
2023-01-11T11:55:34.801Z,6.63
2023-01-11T11:57:17.167Z,6.17
2023-01-11T11:58:50.909Z,5.20
2023-01-11T12:00:27.826Z,6.50
2023-01-11T12:02:04.485Z,5.77
2023-01-11T12:03:37.634Z,6.00
2023-01-11T12:05:12.180Z,6.03
2023-01-11T12:06:46.511Z,5.67
2023-01-11T12:08:21.594Z,5.70
2023-01-11T12:10:00.804Z,4.60
2023-01-11T12:11:38.027Z,6.00
2023-01-11T12:13:27.620Z,5.33
2023-01-11T12:15:19.227Z,6.10
2023-01-11T12:16:52.375Z,5.43
2023-01-11T12:18:27.860Z,5.70
2023-01-11T12:20:01.003Z,4.93
2023-01-11T12:21:34.102Z,5.07
2023-01-11T12:23:19.054Z,5.13
2023-01-11T12:25:05.957Z,4.73
2023-01-11T12:26:48.465Z,4.27
2023-01-11T12:28:33.333Z,4.90
2023-01-11T12:30:22.878Z,3.90
2023-01-11T12:32:13.952Z,4.00
2023-01-11T12:33:54.656Z,4.10
2023-01-11T12:35:37.120Z,4.03
2023-01-11T12:37:20.293Z,3.47
2023-01-11T12:39:02.833Z,5.37
2023-01-11T12:40:43.877Z,4.00
2023-01-11T12:43:01.711Z,4.20
2023-01-11T12:44:54.735Z,4.23
2023-01-11T12:46:37.676Z,4.23
2023-01-11T12:48:30.720Z,3.80
2023-01-11T12:50:10.445Z,4.40
2023-01-11T12:52:03.682Z,4.53
2023-01-11T12:53:52.692Z,3.13
2023-01-11T12:55:45.301Z,5.50
2023-01-11T12:57:28.855Z,6.43
2023-01-11T12:59:08.637Z,3.47
2023-01-11T13:01:13.701Z,4.03
2023-01-11T13:03:03.397Z,3.80
2023-01-11T13:04:49.774Z,4.40
2023-01-11T13:06:31.543Z,3.47
2023-01-11T13:08:14.071Z,5.17
2023-01-11T13:09:57.544Z,4.27
2023-01-11T13:11:43.578Z,2.93
2023-01-11T13:13:21.165Z,3.20
2023-01-11T13:15:07.466Z,3.13
2023-01-11T13:16:48.605Z,3.10
2023-01-11T13:18:31.432Z,7.27
2023-01-11T13:20:25.393Z,3.87
2023-01-11T13:22:04.491Z,3.67
2023-01-11T13:23:43.011Z,4.30
2023-01-11T13:25:20.112Z,3.67
2023-01-11T13:26:55.853Z,5.03
2023-01-11T13:28:34.242Z,3.50
2023-01-11T13:30:15.029Z,3.73
2023-01-11T13:31:49.408Z,3.60
2023-01-11T13:33:25.233Z,3.90
2023-01-11T13:35:05.111Z,3.57
2023-01-11T13:36:41.864Z,4.43
2023-01-11T13:38:26.496Z,3.67
2023-01-11T13:40:08.197Z,3.77
2023-01-11T13:41:46.005Z,3.83
2023-01-11T13:43:23.656Z,4.37
2023-01-11T13:45:01.762Z,4.70
2023-01-11T13:46:54.831Z,5.53
2023-01-11T13:48:32.576Z,3.50
2023-01-11T13:50:12.383Z,3.50
2023-01-11T13:51:53.108Z,3.40
2023-01-11T13:53:32.781Z,4.13
2023-01-11T13:55:20.863Z,3.17
2023-01-11T13:57:01.890Z,3.43
2023-01-11T13:58:38.304Z,3.33
2023-01-11T14:00:21.460Z,2.80
2023-01-11T14:02:00.130Z,3.23
2023-01-11T14:03:37.728Z,3.87
2023-01-11T14:05:16.829Z,4.53
2023-01-11T14:07:04.592Z,3.67
2023-01-11T14:09:07.795Z,4.00
2023-01-11T14:10:44.651Z,2.73
2023-01-11T14:12:31.194Z,3.67
2023-01-11T14:14:21.430Z,3.47
2023-01-11T14:16:00.312Z,3.17
2023-01-11T14:17:55.465Z,2.87
2023-01-11T14:19:34.996Z,2.70
2023-01-11T14:21:15.101Z,3.03
2023-01-11T14:22:57.076Z,3.23
2023-01-11T14:24:37.027Z,3.13
2023-01-11T14:26:40.440Z,3.33
2023-01-11T14:28:32.520Z,2.97
2023-01-11T14:30:26.595Z,3.33
2023-01-11T14:32:14.542Z,3.20
2023-01-11T14:34:17.470Z,2.90
2023-01-11T14:36:20.996Z,2.70
2023-01-11T14:38:32.688Z,2.97
2023-01-11T14:40:32.220Z,2.60
2023-01-11T14:42:31.343Z,2.90
2023-01-11T14:44:31.479Z,2.63
2023-01-11T14:46:25.214Z,2.90
2023-01-11T14:48:18.990Z,2.83
2023-01-11T14:50:15.551Z,3.20
2023-01-11T14:51:57.808Z,2.90
2023-01-11T14:53:34.387Z,4.13
2023-01-11T14:55:16.266Z,3.63
2023-01-11T14:56:53.500Z,3.00
2023-01-11T14:58:27.677Z,2.90
2023-01-11T15:00:01.759Z,3.37
2023-01-11T15:02:08.288Z,3.43
2023-01-11T15:03:49.412Z,3.03
2023-01-11T15:05:36.508Z,2.70
2023-01-11T15:07:24.640Z,4.20
2023-01-11T15:08:57.694Z,3.40
2023-01-11T15:10:46.196Z,3.60
2023-01-11T15:12:20.940Z,3.97
2023-01-11T15:13:58.323Z,3.30
2023-01-11T15:15:56.154Z,3.80
2023-01-11T15:17:48.376Z,3.73
2023-01-11T15:19:33.754Z,3.77
2023-01-11T15:21:08.548Z,3.63
2023-01-11T15:22:42.222Z,3.57
2023-01-11T15:24:26.097Z,3.93
2023-01-11T15:26:05.288Z,3.47
2023-01-11T15:27:39.592Z,4.03
2023-01-11T15:29:23.560Z,5.37
2023-01-11T15:30:56.706Z,3.47
2023-01-11T15:32:31.912Z,3.77
2023-01-11T15:34:18.426Z,3.90
2023-01-11T15:36:02.740Z,3.80
2023-01-11T15:37:51.733Z,4.50
2023-01-11T15:39:34.522Z,4.23
2023-01-11T15:41:32.275Z,4.07
2023-01-11T15:43:30.589Z,4.90
2023-01-11T15:45:26.381Z,5.70
2023-01-11T15:47:21.768Z,6.70
2023-01-11T15:49:32.794Z,8.13
2023-01-11T15:51:26.503Z,9.60
2023-01-11T15:53:40.975Z,8.43
2023-01-11T15:55:39.725Z,7.67
2023-01-11T15:57:43.202Z,7.77
2023-01-11T15:59:52.587Z,8.53
2023-01-11T16:01:28.293Z,7.30
2023-01-11T16:03:48.748Z,8.10
2023-01-11T16:05:27.010Z,8.67
2023-01-11T16:07:05.491Z,10.03
2023-01-11T16:08:46.670Z,8.50
2023-01-11T16:10:49.040Z,8.43
2023-01-11T16:12:42.382Z,8.17
2023-01-11T16:14:42.003Z,9.03
2023-01-11T16:16:20.950Z,9.10
2023-01-11T16:17:55.040Z,7.87
2023-01-11T16:19:33.059Z,7.93
2023-01-11T16:21:10.132Z,10.00
2023-01-11T16:22:43.201Z,11.90
2023-01-11T16:24:20.336Z,9.97
2023-01-11T16:25:58.478Z,10.13
2023-01-11T16:27:34.819Z,11.07
2023-01-11T16:29:19.733Z,11.77
2023-01-11T16:31:02.122Z,10.43
2023-01-11T16:32:35.287Z,9.80
2023-01-11T16:34:08.750Z,11.03
2023-01-11T16:35:40.853Z,11.53
2023-01-11T16:37:22.541Z,13.10
2023-01-11T16:39:03.371Z,13.47
2023-01-11T16:40:40.785Z,10.50
2023-01-11T16:42:15.494Z,9.20
2023-01-11T16:43:52.695Z,10.00
2023-01-11T16:45:39.817Z,9.40
2023-01-11T16:47:16.958Z,10.00
2023-01-11T16:49:02.719Z,11.00
2023-01-11T16:50:36.513Z,10.73
2023-01-11T16:52:39.044Z,9.90
2023-01-11T16:54:16.445Z,9.07
2023-01-11T16:55:56.246Z,10.30
2023-01-11T16:57:35.839Z,9.60
2023-01-11T16:59:24.363Z,10.27
2023-01-11T17:01:00.355Z,10.43
2023-01-11T17:02:38.004Z,11.23
2023-01-11T17:04:27.995Z,10.20
2023-01-11T17:06:04.367Z,10.53
2023-01-11T17:07:37.424Z,10.53
2023-01-11T17:09:21.440Z,10.67
2023-01-11T17:10:57.421Z,11.50
2023-01-11T17:12:31.919Z,10.33
2023-01-11T17:14:38.792Z,12.83
2023-01-11T17:16:15.657Z,11.60
2023-01-11T17:17:48.898Z,10.87
2023-01-11T17:19:25.186Z,12.33
2023-01-11T17:20:58.254Z,12.73
2023-01-11T17:22:33.591Z,10.67
2023-01-11T17:24:08.102Z,9.90
2023-01-11T17:25:45.167Z,12.73
2023-01-11T17:27:21.861Z,12.73
2023-01-11T17:28:58.390Z,11.57
2023-01-11T17:30:32.533Z,10.53
2023-01-11T17:32:08.758Z,12.07
2023-01-11T17:33:42.891Z,11.37
2023-01-11T17:35:18.209Z,10.17
2023-01-11T17:36:52.042Z,6.77
2023-01-11T17:38:27.601Z,4.57
2023-01-11T17:40:00.926Z,3.77
2023-01-11T17:41:51.680Z,3.13
2023-01-11T17:43:43.645Z,4.20
2023-01-11T17:45:21.772Z,2.83
2023-01-11T17:46:54.092Z,5.60
2023-01-11T17:48:28.281Z,2.20
2023-01-11T17:50:02.960Z,2.67
2023-01-11T17:51:36.464Z,5.67
2023-01-11T17:53:16.910Z,4.40
2023-01-11T17:55:01.530Z,9.43
2023-01-11T17:56:39.116Z,6.50
2023-01-11T17:58:19.041Z,10.73
2023-01-11T18:00:27.850Z,8.53
2023-01-11T18:02:04.535Z,8.13
2023-01-11T18:03:42.338Z,9.23
2023-01-11T18:08:33.168Z,11.07
2023-01-11T18:10:07.168Z,12.60
2023-01-11T18:11:42.734Z,10.33
2023-01-11T18:13:23.632Z,10.47
2023-01-11T18:14:59.305Z,10.53
2023-01-11T18:16:34.213Z,11.90
2023-01-11T18:18:43.536Z,11.73
2023-01-11T18:20:35.310Z,10.67
2023-01-11T18:22:29.555Z,10.63
2023-01-11T18:24:43.156Z,12.27
2023-01-11T18:26:27.804Z,11.73
2023-01-11T18:28:22.927Z,11.30
2023-01-11T18:29:57.448Z,13.43
2023-01-11T18:31:30.906Z,11.87
2023-01-11T18:33:12.757Z,11.47
2023-01-11T18:34:48.385Z,12.40
2023-01-11T18:36:23.500Z,11.77
2023-01-11T18:37:56.657Z,12.83
2023-01-11T18:39:29.900Z,16.53
2023-01-11T18:41:21.070Z,12.63
2023-01-11T18:42:54.917Z,15.83
2023-01-11T18:44:30.847Z,16.13
2023-01-11T18:46:04.056Z,15.80
2023-01-11T18:47:37.144Z,16.47
2023-01-11T18:49:11.587Z,15.80
2023-01-11T18:50:46.057Z,14.23
2023-01-11T18:52:20.361Z,12.70
2023-01-11T18:53:53.416Z,11.90
2023-01-11T18:55:26.519Z,7.83
2023-01-11T18:56:58.622Z,5.70
2023-01-11T18:58:31.701Z,4.40
2023-01-11T19:00:05.534Z,2.60
2023-01-11T19:01:54.302Z,4.03
2023-01-11T19:03:31.871Z,3.07
2023-01-11T19:05:06.849Z,3.13
2023-01-11T19:06:39.928Z,5.70
2023-01-11T19:08:12.984Z,2.57
2023-01-11T19:09:46.353Z,3.17
2023-01-11T19:11:19.454Z,2.67
2023-01-11T19:12:52.554Z,3.20
2023-01-11T19:14:25.849Z,3.30
2023-01-11T19:16:01.053Z,2.50
2023-01-11T19:17:34.302Z,3.70
2023-01-11T19:19:06.440Z,5.17
2023-01-11T19:20:41.674Z,4.83
2023-01-11T19:22:15.042Z,5.50
2023-01-11T19:23:49.767Z,3.43
2023-01-11T19:25:22.866Z,5.20
2023-01-11T19:26:56.051Z,4.23
2023-01-11T19:28:29.351Z,4.53
2023-01-11T19:30:02.437Z,3.27
2023-01-11T19:31:35.514Z,2.73
2023-01-11T19:33:08.632Z,2.93
2023-01-11T19:34:41.716Z,3.77
2023-01-11T19:36:16.184Z,2.47
2023-01-11T19:37:49.254Z,2.90
2023-01-11T19:39:22.371Z,2.50
2023-01-11T19:40:55.631Z,3.83
2023-01-11T19:42:28.697Z,3.03
2023-01-11T19:44:01.810Z,3.13
2023-01-11T19:45:35.076Z,5.07
2023-01-11T19:47:12.507Z,2.57
2023-01-11T19:48:46.241Z,3.20
2023-01-11T19:50:19.609Z,2.20
2023-01-11T19:51:54.116Z,6.80
2023-01-11T19:53:27.251Z,2.70
2023-01-11T19:55:00.318Z,3.83
2023-01-11T19:56:33.382Z,3.50
2023-01-11T19:58:08.192Z,3.27
2023-01-11T19:59:41.474Z,3.50
2023-01-11T20:01:14.676Z,3.03
2023-01-11T20:02:47.812Z,3.03
2023-01-11T20:04:21.155Z,3.03
2023-01-11T20:05:54.273Z,4.37
2023-01-11T20:07:28.777Z,4.83
2023-01-11T20:09:01.920Z,4.83
2023-01-11T20:10:35.616Z,4.80
2023-01-11T20:12:10.226Z,3.50
2023-01-11T20:13:45.367Z,3.70
2023-01-11T20:15:18.652Z,4.33
2023-01-11T20:16:51.840Z,5.30
2023-01-11T20:18:24.945Z,4.40
2023-01-11T20:19:58.135Z,7.63
2023-01-11T20:21:33.957Z,4.60
2023-01-11T20:23:08.387Z,5.77
2023-01-11T20:24:41.491Z,5.80
2023-01-11T20:26:15.983Z,5.30
2023-01-11T20:27:49.245Z,4.70
2023-01-11T20:29:22.341Z,6.50
2023-01-11T20:30:56.470Z,7.13
2023-01-11T20:32:40.803Z,5.50
2023-01-11T20:34:14.358Z,8.17
2023-01-11T20:35:48.689Z,4.50
2023-01-11T20:37:21.843Z,5.83
2023-01-11T20:38:57.210Z,4.93
2023-01-11T20:40:30.436Z,5.70
2023-01-11T20:42:03.507Z,6.00
2023-01-11T20:43:38.210Z,8.23
2023-01-11T20:45:12.207Z,7.17
2023-01-11T20:46:47.847Z,8.93
2023-01-11T20:48:21.274Z,6.63
2023-01-11T20:49:54.363Z,5.47
2023-01-11T20:51:27.886Z,6.50
2023-01-11T20:53:00.989Z,6.57
2023-01-11T20:54:36.885Z,5.60
2023-01-11T20:56:10.358Z,5.13
2023-01-11T20:57:46.532Z,6.03
2023-01-11T20:59:20.636Z,5.60
2023-01-11T21:00:53.749Z,5.20
2023-01-11T21:02:26.895Z,7.40
2023-01-11T21:04:01.722Z,4.57
2023-01-11T21:05:38.065Z,4.63
2023-01-11T21:07:11.189Z,5.27
2023-01-11T21:08:44.264Z,5.53
2023-01-11T21:10:18.944Z,5.87
2023-01-11T21:11:54.164Z,6.00
2023-01-11T21:13:27.292Z,4.50
2023-01-11T21:15:00.614Z,4.10
2023-01-11T21:16:33.735Z,4.83
2023-01-11T21:18:07.263Z,5.90
2023-01-11T21:19:40.391Z,6.53
2023-01-11T21:21:14.586Z,7.17
2023-01-11T21:22:47.709Z,6.33
2023-01-11T21:24:20.961Z,5.00
2023-01-11T21:25:55.457Z,7.23
2023-01-11T21:27:28.658Z,7.90
2023-01-11T21:29:03.620Z,6.63
2023-01-11T21:30:36.684Z,7.30
2023-01-11T21:32:09.846Z,6.03
2023-01-11T21:33:42.912Z,6.83
2023-01-11T21:35:16.171Z,6.63
2023-01-11T21:36:49.249Z,7.90
2023-01-11T21:38:22.324Z,7.57
2023-01-11T21:39:55.376Z,6.93
2023-01-11T21:41:49.188Z,6.23
2023-01-11T21:43:22.286Z,6.07
2023-01-11T21:44:55.424Z,6.53
2023-01-11T21:46:28.545Z,7.63
2023-01-11T21:48:01.704Z,4.97
2023-01-11T21:49:35.115Z,6.10